createdAt,value
2023-05-05T00:01:17.142Z,17.30
2023-05-05T00:06:19.541Z,17.63
2023-05-05T00:11:21.918Z,18.02
2023-05-05T00:16:24.233Z,17.48
2023-05-05T00:21:27.741Z,17.40
2023-05-05T00:26:30.083Z,17.46
2023-05-05T00:31:32.560Z,17.29
2023-05-05T00:36:34.993Z,18.03
2023-05-05T00:41:37.368Z,18.22
2023-05-05T00:46:40.718Z,17.82
2023-05-05T00:51:43.137Z,17.99
2023-05-05T00:56:46.012Z,18.00
2023-05-05T01:01:48.188Z,18.00
2023-05-05T01:07:25.936Z,17.73
2023-05-05T01:12:41.552Z,17.78
2023-05-05T01:17:56.187Z,17.79
2023-05-05T01:23:06.053Z,17.72
2023-05-05T01:28:48.320Z,17.81
2023-05-05T01:33:59.071Z,18.23
2023-05-05T01:39:03.509Z,18.59
2023-05-05T01:44:08.437Z,18.34
2023-05-05T01:49:12.677Z,18.15
2023-05-05T01:54:16.767Z,18.20
2023-05-05T01:59:21.063Z,18.05
2023-05-05T02:04:24.571Z,18.31
2023-05-05T02:09:29.514Z,18.49
2023-05-05T02:14:34.367Z,18.38
2023-05-05T02:19:42.340Z,18.89
2023-05-05T02:24:45.356Z,18.53
2023-05-05T02:29:52.028Z,18.59
2023-05-05T02:34:56.000Z,18.56
2023-05-05T02:40:06.310Z,18.78
2023-05-05T02:45:22.848Z,18.46
2023-05-05T02:50:26.867Z,18.63
2023-05-05T02:55:55.248Z,18.79
2023-05-05T03:01:12.017Z,19.09
2023-05-05T03:06:18.396Z,19.14
2023-05-05T03:11:33.010Z,19.03
2023-05-05T03:16:39.030Z,19.07
2023-05-05T03:21:42.836Z,19.06
2023-05-05T03:26:47.500Z,19.48
2023-05-05T03:31:50.902Z,19.25
2023-05-05T03:36:53.534Z,19.35
2023-05-05T03:41:55.980Z,18.75
2023-05-05T03:46:59.961Z,18.65
2023-05-05T03:52:04.794Z,18.84
2023-05-05T03:57:07.636Z,19.15
2023-05-05T04:02:09.856Z,19.01
2023-05-05T04:07:12.183Z,18.45
2023-05-05T04:12:14.575Z,18.25
2023-05-05T04:17:17.058Z,18.41
2023-05-05T04:22:19.717Z,18.23
2023-05-05T04:27:22.077Z,17.81
2023-05-05T04:32:24.803Z,17.69
2023-05-05T04:37:27.528Z,17.77
2023-05-05T04:42:30.545Z,17.49
2023-05-05T04:47:38.220Z,18.00
2023-05-05T04:52:41.143Z,17.70
2023-05-05T04:57:43.682Z,17.62
2023-05-05T05:02:46.107Z,18.42
2023-05-05T05:07:48.265Z,17.61
2023-05-05T05:12:50.682Z,17.71
2023-05-05T05:17:53.066Z,17.85
2023-05-05T05:22:55.727Z,18.18
2023-05-05T05:28:08.753Z,18.38
2023-05-05T05:33:16.020Z,18.88
2023-05-05T05:38:19.810Z,18.93
2023-05-05T05:43:23.550Z,18.68
2023-05-05T05:48:28.604Z,18.50
2023-05-05T05:53:32.108Z,18.28
2023-05-05T05:58:34.472Z,18.53
2023-05-05T06:03:37.000Z,18.95
2023-05-05T06:08:39.444Z,19.17
2023-05-05T06:13:42.210Z,19.16
2023-05-05T06:18:44.810Z,18.83
2023-05-05T06:23:47.956Z,19.19
2023-05-05T06:28:50.700Z,19.28
2023-05-05T06:33:52.941Z,19.24
2023-05-05T06:38:55.253Z,19.60
2023-05-05T06:43:57.503Z,19.29
2023-05-05T06:48:59.882Z,19.55
2023-05-05T06:54:02.177Z,19.60
2023-05-05T06:59:04.451Z,19.08
2023-05-05T07:04:07.179Z,19.14
2023-05-05T07:09:09.689Z,19.58
2023-05-05T07:14:11.917Z,19.62
2023-05-05T07:19:14.027Z,19.82
2023-05-05T07:24:16.377Z,20.18
2023-05-05T07:29:18.541Z,19.92
2023-05-05T07:34:20.741Z,20.06
2023-05-05T07:39:23.058Z,20.17
2023-05-05T07:44:25.726Z,20.59
2023-05-05T07:49:28.090Z,20.08
2023-05-05T07:54:30.460Z,19.97
2023-05-05T07:59:32.752Z,20.61
2023-05-05T08:04:35.062Z,21.20
2023-05-05T08:09:38.564Z,20.79
2023-05-05T08:14:42.574Z,21.06
2023-05-05T08:19:44.863Z,21.05
2023-05-05T08:24:47.085Z,21.26
2023-05-05T08:29:49.364Z,21.41
2023-05-05T08:34:51.583Z,21.75
2023-05-05T08:39:53.888Z,21.93
2023-05-05T08:44:58.344Z,22.03
2023-05-05T08:50:01.977Z,21.69
2023-05-05T08:55:26.908Z,22.24
2023-05-05T09:00:29.268Z,22.81
2023-05-05T09:05:31.656Z,22.88
2023-05-05T09:10:34.523Z,23.60
2023-05-05T09:15:39.048Z,23.35
2023-05-05T09:20:42.168Z,24.22
2023-05-05T09:25:47.504Z,24.29
2023-05-05T09:30:49.682Z,23.99
2023-05-05T09:35:54.721Z,24.83
2023-05-05T09:40:56.982Z,24.06
2023-05-05T09:46:08.906Z,24.74
2023-05-05T09:51:11.451Z,24.25
2023-05-05T09:56:13.844Z,24.67
2023-05-05T10:01:24.140Z,24.77
2023-05-05T10:06:48.415Z,24.67
2023-05-05T10:11:51.561Z,25.13
2023-05-05T10:16:55.998Z,25.08
2023-05-05T10:22:04.500Z,25.56
2023-05-05T10:27:22.684Z,25.61
2023-05-05T10:32:54.403Z,25.60
2023-05-05T10:38:00.830Z,25.74
2023-05-05T10:43:03.309Z,25.49
2023-05-05T10:48:12.036Z,25.91
2023-05-05T10:53:24.270Z,25.27
2023-05-05T10:58:55.524Z,24.95
2023-05-05T11:04:23.614Z,26.65
2023-05-05T11:09:29.810Z,24.45
2023-05-05T11:14:32.117Z,26.17
2023-05-05T11:19:43.788Z,27.02
2023-05-05T11:24:47.354Z,25.70
2023-05-05T11:30:16.916Z,25.71
2023-05-05T11:35:19.488Z,24.16
2023-05-05T11:40:28.704Z,25.02
2023-05-05T11:45:31.220Z,25.01
2023-05-05T11:50:33.932Z,26.52
2023-05-05T11:55:36.422Z,24.95
2023-05-05T12:00:38.768Z,26.50
2023-05-05T12:05:41.896Z,25.78
2023-05-05T12:10:44.320Z,25.53
2023-05-05T12:15:47.179Z,25.98
2023-05-05T12:20:49.707Z,27.60
2023-05-05T12:25:52.025Z,27.44
2023-05-05T12:31:00.494Z,27.56
2023-05-05T12:36:02.976Z,27.63
2023-05-05T12:41:05.522Z,25.95
2023-05-05T12:46:14.901Z,27.80
2023-05-05T12:51:20.713Z,26.67
2023-05-05T12:56:35.939Z,28.46
2023-05-05T13:01:53.600Z,28.03
2023-05-05T13:07:14.742Z,27.26
2023-05-05T13:12:21.403Z,28.66
2023-05-05T13:17:25.131Z,28.39
2023-05-05T13:22:27.389Z,28.29
2023-05-05T13:27:29.736Z,28.11
2023-05-05T13:32:32.035Z,27.45
2023-05-05T13:37:34.219Z,26.90
2023-05-05T13:42:36.509Z,27.19
2023-05-05T13:47:39.115Z,26.30
2023-05-05T13:52:41.936Z,26.12
2023-05-05T13:57:44.227Z,26.12
2023-05-05T14:02:47.940Z,26.32
2023-05-05T14:07:50.306Z,26.28
2023-05-05T14:12:52.723Z,25.53
2023-05-05T14:17:56.283Z,24.98
2023-05-05T14:22:58.572Z,24.35
2023-05-05T14:28:00.717Z,21.55
2023-05-05T14:33:03.065Z,18.14
2023-05-05T14:38:05.701Z,17.48
2023-05-05T14:43:08.044Z,18.28
2023-05-05T14:48:11.002Z,17.63
2023-05-05T14:53:13.252Z,17.13
2023-05-05T14:58:15.682Z,17.62
2023-05-05T15:03:18.117Z,17.37
2023-05-05T15:08:20.486Z,18.12
2023-05-05T15:13:22.635Z,18.56
2023-05-05T15:18:25.030Z,18.17
2023-05-05T15:23:27.258Z,18.35
2023-05-05T15:28:29.362Z,18.55
2023-05-05T15:33:31.565Z,18.28
2023-05-05T15:38:33.790Z,17.41
2023-05-05T15:43:36.205Z,17.96
2023-05-05T15:48:38.504Z,17.97
2023-05-05T15:53:40.762Z,18.40
2023-05-05T15:58:43.053Z,18.34
2023-05-05T16:03:45.327Z,19.25
2023-05-05T16:08:48.926Z,19.21
2023-05-05T16:13:51.204Z,20.36
2023-05-05T16:18:53.440Z,20.27
2023-05-05T16:23:56.960Z,20.39
2023-05-05T16:28:59.388Z,20.18
2023-05-05T16:34:01.760Z,21.02
2023-05-05T16:39:04.239Z,20.85
2023-05-05T16:44:07.087Z,20.85
2023-05-05T16:49:09.352Z,21.26
2023-05-05T16:54:11.457Z,20.96
2023-05-05T16:59:15.696Z,21.01
2023-05-05T17:04:17.941Z,21.20
2023-05-05T17:09:24.870Z,21.13
2023-05-05T17:14:27.473Z,20.91
2023-05-05T17:19:29.664Z,21.12
2023-05-05T17:24:31.781Z,20.79
2023-05-05T17:29:36.939Z,20.35
2023-05-05T17:34:39.288Z,20.92
2023-05-05T17:39:41.570Z,20.63
2023-05-05T17:44:44.996Z,20.95
2023-05-05T17:49:52.620Z,20.95
2023-05-05T17:54:54.815Z,21.09
2023-05-05T17:59:57.051Z,20.82
2023-05-05T18:04:59.312Z,20.78
2023-05-05T18:10:01.602Z,20.64
2023-05-05T18:15:05.574Z,20.94
2023-05-05T18:20:08.583Z,20.84
2023-05-05T18:25:11.048Z,20.35
2023-05-05T18:30:13.755Z,20.32
2023-05-05T18:35:16.057Z,18.99
2023-05-05T18:40:18.611Z,18.55
2023-05-05T18:45:20.911Z,18.82
2023-05-05T18:50:23.241Z,18.52
2023-05-05T18:55:25.624Z,18.88
2023-05-05T19:00:27.874Z,18.80
2023-05-05T19:05:30.203Z,18.58
2023-05-05T19:10:32.452Z,18.18
2023-05-05T19:15:34.758Z,18.06
2023-05-05T19:20:38.640Z,18.18
2023-05-05T19:25:41.074Z,18.94
2023-05-05T19:30:43.452Z,18.29
2023-05-05T19:35:45.917Z,18.63
2023-05-05T19:40:48.075Z,18.73
2023-05-05T19:45:50.359Z,18.74
2023-05-05T19:50:53.214Z,18.17
2023-05-05T19:55:55.690Z,17.77
2023-05-05T20:00:58.003Z,17.82
2023-05-05T20:06:00.161Z,18.15
2023-05-05T20:11:02.387Z,18.73
2023-05-05T20:16:06.146Z,18.75
2023-05-05T20:21:08.609Z,18.72
2023-05-05T20:26:11.505Z,18.74
2023-05-05T20:31:15.562Z,18.78
2023-05-05T20:36:18.650Z,18.72
2023-05-05T20:41:20.887Z,18.44
2023-05-05T20:46:23.156Z,18.60
2023-05-05T20:51:29.349Z,19.20
2023-05-05T20:56:31.604Z,18.39
2023-05-05T21:01:34.574Z,18.17
2023-05-05T21:06:36.863Z,18.27
2023-05-05T21:11:39.065Z,18.91
2023-05-05T21:16:41.360Z,18.98
2023-05-05T21:21:43.758Z,18.96
2023-05-05T21:26:46.193Z,18.17
2023-05-05T21:31:48.456Z,17.91
2023-05-05T21:36:51.479Z,17.90
2023-05-05T21:41:53.615Z,18.28
2023-05-05T21:46:56.272Z,18.21
2023-05-05T21:51:58.576Z,18.48
2023-05-05T21:57:01.648Z,18.30
2023-05-05T22:02:03.947Z,17.84
2023-05-05T22:07:06.498Z,18.02
2023-05-05T22:12:08.766Z,17.80
2023-05-05T22:17:11.629Z,17.58
2023-05-05T22:22:13.948Z,17.60
2023-05-05T22:27:16.161Z,17.44
2023-05-05T22:32:18.335Z,17.44
2023-05-05T22:37:20.868Z,17.15
2023-05-05T22:42:23.120Z,17.13
2023-05-05T22:47:25.647Z,16.92
2023-05-05T22:52:29.098Z,16.74
2023-05-05T22:57:31.497Z,16.68
2023-05-05T23:02:33.752Z,17.23
2023-05-05T23:07:36.022Z,16.64
2023-05-05T23:12:38.456Z,17.50
2023-05-05T23:17:40.684Z,17.94
2023-05-05T23:22:42.867Z,17.01
2023-05-05T23:27:45.216Z,17.60
2023-05-05T23:32:47.612Z,16.74
2023-05-05T23:37:50.267Z,17.04
2023-05-05T23:42:52.391Z,17.44
2023-05-05T23:47:55.116Z,16.53
2023-05-05T23:52:57.471Z,16.48
2023-05-05T23:57:59.773Z,16.99
